Time;durP1;ratioP1;P1;durP2;ratioP2;P2;SDS_P1;SDS_P2;PMS_P1;PMS_P2;Temp;Humidity;BMP_temperature;BMP_pressure;BME280_temperature;BME280_humidity;BME280_pressure;Samples;Min_cycle;Max_cycle;Signal;HPM_P1;HPM_P2
2023/03/24 00:01:32;;;;;;;4.03;1.55;;;10.50;99.90;;;;;;7402708;19;19918;-77
2023/03/24 00:04:01;;;;;;;4.85;2.08;;;10.50;99.90;;;;;;7405209;19;20348;-77
2023/03/24 00:06:33;;;;;;;5.97;1.98;;;10.60;99.90;;;;;;7405457;19;19918;-77
2023/03/24 00:09:05;;;;;;;6.03;1.85;;;10.60;99.90;;;;;;7404097;19;19922;-78
2023/03/24 00:11:35;;;;;;;7.45;2.00;;;10.60;99.90;;;;;;7402564;19;19932;-77
2023/03/24 00:14:04;;;;;;;4.00;1.63;;;10.60;99.90;;;;;;7405471;19;19922;-77
2023/03/24 00:16:37;;;;;;;5.97;2.47;;;10.60;99.90;;;;;;7409627;19;19918;-77
2023/03/24 00:19:09;;;;;;;5.50;2.00;;;10.50;99.90;;;;;;7406443;19;20675;-78
2023/03/24 00:21:40;;;;;;;4.63;2.00;;;10.70;99.90;;;;;;7405042;19;19921;-78
2023/03/24 00:24:13;;;;;;;4.00;1.70;;;10.60;99.90;;;;;;7404665;19;19922;-77
2023/03/24 00:26:43;;;;;;;5.95;2.03;;;10.60;99.90;;;;;;7408982;19;19923;-78
2023/03/24 00:29:13;;;;;;;6.10;2.17;;;10.60;99.90;;;;;;7404696;19;20336;-78
2023/03/24 00:31:42;;;;;;;6.18;2.47;;;10.60;99.90;;;;;;7403608;19;19931;-78
2023/03/24 00:34:13;;;;;;;5.85;2.22;;;10.50;99.90;;;;;;7404819;19;19922;-77
2023/03/24 00:36:42;;;;;;;3.50;1.42;;;10.50;99.90;;;;;;7404809;19;19915;-78
2023/03/24 00:39:18;;;;;;;4.13;1.52;;;10.60;99.90;;;;;;7403435;19;20368;-78
2023/03/24 00:41:49;;;;;;;6.40;1.88;;;10.50;99.90;;;;;;7408443;19;19926;-78
2023/03/24 00:44:19;;;;;;;5.43;1.80;;;10.60;99.90;;;;;;7404293;19;19918;-80
2023/03/24 00:46:54;;;;;;;3.83;1.90;;;10.40;99.90;;;;;;7404721;19;19921;-79
2023/03/24 00:49:41;;;;;;;5.18;2.17;;;10.60;99.90;;;;;;7404052;19;19923;-78
2023/03/24 00:52:19;;;;;;;4.68;1.75;;;10.40;99.90;;;;;;7403110;19;19919;-78
2023/03/24 00:54:53;;;;;;;3.70;2.10;;;10.40;99.90;;;;;;7406184;19;19926;-79
2023/03/24 00:57:24;;;;;;;5.75;2.10;;;10.40;99.90;;;;;;7404747;19;19970;-78
2023/03/24 00:59:55;;;;;;;6.93;2.25;;;10.30;99.90;;;;;;7403081;19;19932;-76
2023/03/24 01:02:27;;;;;;;6.75;2.45;;;10.30;99.90;;;;;;7405712;19;19922;-78
2023/03/24 01:04:57;;;;;;;5.10;2.00;;;10.30;99.90;;;;;;7403755;19;19925;-77
2023/03/24 01:07:28;;;;;;;6.13;2.05;;;10.40;99.90;;;;;;7402610;19;19923;-78
2023/03/24 01:10:01;;;;;;;4.72;1.90;;;10.40;99.90;;;;;;7405392;19;19922;-78
2023/03/24 01:12:33;;;;;;;3.70;1.92;;;12.60;99.90;;;;;;7401779;19;19915;-78
2023/03/24 01:15:04;;;;;;;3.80;1.70;;;10.30;99.90;;;;;;7407015;19;19922;-78
2023/03/24 01:17:34;;;;;;;4.25;1.63;;;10.40;99.90;;;;;;7403201;19;20360;-78
2023/03/24 01:20:06;;;;;;;4.65;1.80;;;10.30;99.90;;;;;;7404101;19;19931;-78
2023/03/24 01:22:36;;;;;;;6.65;2.05;;;10.20;99.90;;;;;;7403418;19;19915;-78
2023/03/24 01:25:09;;;;;;;5.47;1.95;;;10.30;99.90;;;;;;7402456;19;19914;-78
2023/03/24 01:27:38;;;;;;;3.08;1.67;;;10.20;99.90;;;;;;7403513;19;19970;-78
2023/03/24 01:30:09;;;;;;;5.40;1.73;;;10.30;99.90;;;;;;7402933;19;20351;-78
2023/03/24 01:32:39;;;;;;;3.65;1.52;;;10.20;99.90;;;;;;7401597;19;20353;-77
2023/03/24 01:35:08;;;;;;;5.35;2.13;;;10.30;99.90;;;;;;7403115;19;19974;-78
2023/03/24 01:37:41;;;;;;;4.05;1.65;;;10.20;99.90;;;;;;7402704;19;19910;-78
2023/03/24 01:40:18;;;;;;;4.38;2.35;;;10.20;99.90;;;;;;7405197;19;19910;-78
2023/03/24 01:42:47;;;;;;;4.43;1.55;;;10.20;99.90;;;;;;7402655;19;19911;-78
2023/03/24 01:45:47;;;;;;;4.28;1.90;;;10.30;99.90;;;;;;7402673;19;20373;-78
2023/03/24 01:48:18;;;;;;;4.43;1.75;;;10.40;99.90;;;;;;7403189;19;19925;-77
2023/03/24 01:50:59;;;;;;;3.70;1.77;;;10.20;99.90;;;;;;7402573;19;20010;-78
2023/03/24 01:53:30;;;;;;;5.25;1.70;;;10.20;99.90;;;;;;7399986;19;19934;-78
2023/03/24 01:56:03;;;;;;;4.25;1.90;;;10.30;99.90;;;;;;7402631;19;20392;-78
2023/03/24 01:58:34;;;;;;;4.85;1.52;;;10.10;99.90;;;;;;7402276;19;20264;-78
2023/03/24 02:01:05;;;;;;;5.75;1.85;;;10.20;99.90;;;;;;7401800;19;19919;-78
2023/03/24 02:03:37;;;;;;;7.05;1.77;;;10.30;99.90;;;;;;7402825;19;19919;-78
2023/03/24 02:06:08;;;;;;;3.58;1.77;;;10.40;99.90;;;;;;7402635;19;19950;-78
2023/03/24 02:08:42;;;;;;;3.72;1.70;;;10.30;99.90;;;;;;7402458;19;20312;-77
2023/03/24 02:11:14;;;;;;;5.43;1.55;;;10.30;99.90;;;;;;7399897;19;19931;-78
2023/03/24 02:13:43;;;;;;;2.95;1.77;;;10.30;99.90;;;;;;7405843;19;19939;-78
2023/03/24 02:16:37;;;;;;;4.80;1.80;;;10.30;99.90;;;;;;7401479;19;20276;-77
2023/03/24 02:19:54;;;;;;;3.28;1.50;;;10.30;99.90;;;;;;7401558;19;20264;-78
2023/03/24 02:22:47;;;;;;;6.05;1.70;;;10.20;99.90;;;;;;7397159;19;19921;-78
2023/03/24 02:25:48;;;;;;;5.00;1.70;;;10.40;99.90;;;;;;7401526;19;19989;-78
2023/03/24 02:28:32;;;;;;;3.17;1.70;;;10.30;99.90;;;;;;7400363;19;19914;-78
2023/03/24 02:31:23;;;;;;;3.80;1.52;;;10.30;99.90;;;;;;7401566;19;19911;-78
2023/03/24 02:34:26;;;;;;;3.17;1.70;;;10.30;99.90;;;;;;7401612;19;20279;-79
2023/03/24 02:37:26;;;;;;;4.60;1.77;;;10.30;99.90;;;;;;7400774;19;19918;-78
2023/03/24 02:40:25;;;;;;;3.13;1.55;;;10.40;99.90;;;;;;7404364;19;19930;-79
2023/03/24 02:43:18;;;;;;;2.95;1.55;;;10.40;99.90;;;;;;7400267;19;19914;-79
2023/03/24 02:46:00;;;;;;;7.22;2.00;;;10.40;99.90;;;;;;7404843;19;19910;-79
2023/03/24 02:48:38;;;;;;;4.30;1.52;;;10.30;99.90;;;;;;7401415;19;19915;-79
2023/03/24 02:51:13;;;;;;;2.72;1.80;;;10.40;99.90;;;;;;7402939;19;19960;-78
2023/03/24 02:53:53;;;;;;;3.47;1.35;;;10.50;99.90;;;;;;7399109;19;20536;-79
2023/03/24 02:56:30;;;;;;;4.15;1.90;;;10.60;99.90;;;;;;7400953;19;19918;-78
2023/03/24 02:59:04;;;;;;;3.72;1.73;;;10.40;99.90;;;;;;7400579;19;19911;-78
2023/03/24 03:01:36;;;;;;;2.17;1.80;;;10.50;99.90;;;;;;7400918;19;19926;-78
2023/03/24 03:04:09;;;;;;;;;;;10.50;99.90;;;;;;7402759;19;20273;-78
2023/03/24 03:06:41;;;;;;;3.03;1.77;;;10.60;99.90;;;;;;7399396;19;19919;-79
2023/03/24 03:09:14;;;;;;;3.50;2.10;;;10.50;99.90;;;;;;7400309;19;19931;-79
2023/03/24 03:11:49;;;;;;;3.78;1.98;;;10.40;99.90;;;;;;7399809;19;19989;-78
2023/03/24 03:14:24;;;;;;;4.15;1.88;;;10.40;99.90;;;;;;7400119;19;19942;-77
2023/03/24 03:16:58;;;;;;;6.07;1.77;;;10.40;99.90;;;;;;7403233;19;19946;-78
2023/03/24 03:19:32;;;;;;;3.75;1.67;;;10.50;99.90;;;;;;7399665;19;19915;-78
2023/03/24 03:22:02;;;;;;;4.57;2.05;;;10.60;99.90;;;;;;7402126;19;20274;-78
2023/03/24 03:24:38;;;;;;;2.65;1.75;;;10.50;99.90;;;;;;7406748;19;20262;-78
2023/03/24 03:27:28;;;;;;;4.13;1.92;;;10.40;99.90;;;;;;7406420;19;20344;-79
2023/03/24 03:30:01;;;;;;;2.15;1.42;;;10.60;99.90;;;;;;7406584;19;19924;-78
2023/03/24 03:32:33;;;;;;;2.85;1.80;;;10.60;99.90;;;;;;7405705;19;19915;-78
2023/03/24 03:35:03;;;;;;;;;;;10.50;99.90;;;;;;7409860;19;19979;-77
2023/03/24 03:37:38;;;;;;;2.53;1.58;;;10.50;99.90;;;;;;7408462;19;19970;-78
2023/03/24 03:40:12;;;;;;;5.35;1.98;;;10.60;99.90;;;;;;7407618;19;20002;-78
2023/03/24 03:42:50;;;;;;;2.92;1.92;;;10.50;99.90;;;;;;7406979;19;19942;-79
2023/03/24 03:45:19;;;;;;;2.63;1.77;;;10.60;99.90;;;;;;7406813;19;19966;-78
2023/03/24 03:47:50;;;;;;;3.38;1.58;;;10.70;99.90;;;;;;7406315;19;19918;-78
2023/03/24 03:50:19;;;;;;;2.95;1.50;;;10.70;99.90;;;;;;7406342;19;19922;-79
2023/03/24 03:52:49;;;;;;;2.78;1.40;;;10.60;99.90;;;;;;7405182;19;19947;-79
2023/03/24 03:55:18;;;;;;;4.20;1.83;;;10.60;99.90;;;;;;7405819;19;20364;-78
2023/03/24 03:57:50;;;;;;;3.35;1.77;;;10.80;99.90;;;;;;7405649;19;19943;-79
2023/03/24 04:00:21;;;;;;;3.13;1.50;;;10.80;99.90;;;;;;7405780;19;19988;-79
2023/03/24 04:03:09;;;;;;;2.45;1.50;;;10.70;99.90;;;;;;7405434;19;19933;-80
2023/03/24 04:05:45;;;;;;;2.50;1.90;;;10.70;99.90;;;;;;7405916;19;19963;-78
2023/03/24 04:08:27;;;;;;;4.97;1.85;;;10.70;99.90;;;;;;7403949;19;19978;-79
2023/03/24 04:11:27;;;;;;;2.63;1.40;;;10.70;99.90;;;;;;7409190;19;19978;-77
2023/03/24 04:14:13;;;;;;;2.45;1.00;;;10.60;99.90;;;;;;7403743;19;19922;-79
2023/03/24 04:16:54;;;;;;;1.17;0.80;;;10.60;99.90;;;;;;7405130;19;20267;-78
2023/03/24 04:19:38;;;;;;;2.60;0.60;;;10.50;99.90;;;;;;7405405;19;19918;-79
2023/03/24 04:22:22;;;;;;;1.33;0.90;;;10.40;99.90;;;;;;7405027;19;19933;-79
2023/03/24 04:24:56;;;;;;;1.58;0.90;;;10.40;99.90;;;;;;7404311;19;19918;-79
2023/03/24 04:27:38;;;;;;;2.22;1.10;;;10.30;99.90;;;;;;7405155;19;19922;-78
2023/03/24 04:30:22;;;;;;;1.88;1.00;;;10.30;99.90;;;;;;7405235;19;19910;-79
2023/03/24 04:32:57;;;;;;;0.95;0.63;;;10.30;99.90;;;;;;7404199;19;19919;-79
2023/03/24 04:35:33;;;;;;;2.78;1.30;;;10.20;99.90;;;;;;7404015;19;19914;-79
2023/03/24 04:38:04;;;;;;;1.85;0.80;;;10.20;99.90;;;;;;7407808;19;20271;-80
2023/03/24 04:40:40;;;;;;;4.50;1.20;;;10.20;99.90;;;;;;7404472;19;20345;-80
2023/03/24 04:43:16;;;;;;;2.53;1.00;;;10.10;99.90;;;;;;7406556;19;19919;-79
2023/03/24 04:45:49;;;;;;;5.07;0.90;;;10.10;99.90;;;;;;7405234;19;19919;-79
2023/03/24 04:48:20;;;;;;;5.07;0.70;;;10.10;99.90;;;;;;7405325;19;19914;-79
2023/03/24 04:50:56;;;;;;;2.47;0.60;;;9.70;99.90;;;;;;7406026;19;20332;-79
2023/03/24 04:53:25;;;;;;;3.08;1.00;;;9.90;99.90;;;;;;7403730;19;19922;-80
2023/03/24 04:56:09;;;;;;;4.50;0.90;;;9.90;99.90;;;;;;7404551;19;19915;-80
2023/03/24 04:58:39;;;;;;;5.78;0.75;;;10.10;99.90;;;;;;7404628;19;19925;-79
2023/03/24 05:01:12;;;;;;;2.95;0.80;;;10.00;99.90;;;;;;7402814;19;20250;-79
2023/03/24 05:03:44;;;;;;;1.77;0.50;;;9.80;99.90;;;;;;7404121;19;19919;-79
2023/03/24 05:06:14;;;;;;;1.90;0.68;;;9.90;99.90;;;;;;7405241;19;20328;-79
2023/03/24 05:08:43;;;;;;;4.25;0.75;;;9.80;99.90;;;;;;7405384;19;19918;-79
2023/03/24 05:11:12;;;;;;;3.50;0.60;;;9.80;99.90;;;;;;7404390;19;20281;-80
2023/03/24 05:13:41;;;;;;;3.60;0.98;;;9.70;99.90;;;;;;7402251;19;20253;-79
2023/03/24 05:16:12;;;;;;;3.40;0.70;;;9.80;99.90;;;;;;7403907;19;19914;-80
2023/03/24 05:18:43;;;;;;;4.32;1.13;;;9.70;99.90;;;;;;7403913;19;20313;-79
2023/03/24 05:21:12;;;;;;;7.20;1.20;;;9.50;99.90;;;;;;7406277;19;19926;-79
2023/03/24 05:23:41;;;;;;;3.30;1.00;;;9.80;99.90;;;;;;7404071;19;19914;-79
2023/03/24 05:26:10;;;;;;;2.55;0.77;;;9.60;99.90;;;;;;7403211;19;20261;-79
2023/03/24 05:28:39;;;;;;;4.07;1.00;;;9.80;99.90;;;;;;7403729;19;20329;-79
2023/03/24 05:31:08;;;;;;;3.28;0.68;;;9.70;99.90;;;;;;7403104;19;20415;-79
2023/03/24 05:33:40;;;;;;;6.65;1.38;;;9.70;99.90;;;;;;7402262;19;20021;-79
2023/03/24 05:36:10;;;;;;;3.70;0.75;;;9.50;99.90;;;;;;7406030;19;19946;-78
2023/03/24 05:38:38;;;;;;;8.43;0.93;;;9.70;99.90;;;;;;7403100;19;20447;-80
2023/03/24 05:41:08;;;;;;;4.50;0.77;;;9.60;99.90;;;;;;7402673;19;19918;-79
2023/03/24 05:43:37;;;;;;;3.22;0.70;;;9.50;99.90;;;;;;7402390;19;19910;-78
2023/03/24 05:46:06;;;;;;;8.77;1.23;;;9.50;99.90;;;;;;7399853;19;19922;-79
2023/03/24 05:48:42;;;;;;;4.82;1.20;;;9.60;99.90;;;;;;7402586;19;20030;-79
2023/03/24 05:51:11;;;;;;;5.55;1.10;;;9.50;99.90;;;;;;7407158;19;20294;-80
2023/03/24 05:53:40;;;;;;;5.30;1.13;;;9.40;99.90;;;;;;7401415;19;19914;-79
2023/03/24 05:56:11;;;;;;;9.15;1.20;;;9.40;99.90;;;;;;7402705;19;20272;-79
2023/03/24 05:58:43;;;;;;;5.78;1.27;;;9.40;99.90;;;;;;7402480;19;19923;-79
2023/03/24 06:01:17;;;;;;;4.35;1.10;;;9.30;99.90;;;;;;7401100;19;20292;-79
2023/03/24 06:03:48;;;;;;;4.07;1.63;;;9.30;99.90;;;;;;7401611;19;19942;-79
2023/03/24 06:06:17;;;;;;;10.30;2.05;;;9.30;99.90;;;;;;7401806;19;20316;-79
2023/03/24 06:08:46;;;;;;;11.02;1.73;;;9.30;99.90;;;;;;7406779;19;20369;-79
2023/03/24 06:11:16;;;;;;;3.63;0.75;;;9.20;99.90;;;;;;7402193;19;20586;-79
2023/03/24 06:13:45;;;;;;;6.10;1.50;;;9.30;99.90;;;;;;7401681;19;20248;-78
2023/03/24 06:16:14;;;;;;;6.60;1.20;;;9.40;99.90;;;;;;7401915;19;19945;-79
2023/03/24 06:18:51;;;;;;;5.55;1.27;;;9.20;99.90;;;;;;7402042;19;19927;-79
2023/03/24 06:21:29;;;;;;;6.55;1.52;;;9.30;99.90;;;;;;7402782;19;19926;-79
2023/03/24 06:23:58;;;;;;;5.45;1.10;;;9.20;99.90;;;;;;7404092;19;19919;-79
2023/03/24 06:26:29;;;;;;;5.80;1.33;;;9.40;99.90;;;;;;7403153;19;20308;-79
2023/03/24 06:28:58;;;;;;;7.80;1.63;;;9.30;99.90;;;;;;7403254;19;20340;-79
2023/03/24 06:31:29;;;;;;;6.90;1.35;;;9.90;99.90;;;;;;7403057;19;20569;-79
2023/03/24 06:34:03;;;;;;;10.10;1.63;;;9.20;99.90;;;;;;7401121;19;19925;-80
2023/03/24 06:36:35;;;;;;;9.30;1.30;;;9.30;99.90;;;;;;7400499;19;19926;-79
2023/03/24 06:39:04;;;;;;;5.38;1.30;;;9.30;99.90;;;;;;7404070;19;19918;-79
2023/03/24 06:41:34;;;;;;;6.45;1.52;;;9.30;99.90;;;;;;7400975;19;19914;-79
2023/03/24 06:44:03;;;;;;;4.47;1.08;;;9.40;99.90;;;;;;7401393;19;19918;-79
2023/03/24 06:46:36;;;;;;;6.03;1.10;;;9.40;99.90;;;;;;7401016;19;19925;-79
2023/03/24 06:49:06;;;;;;;4.43;1.02;;;9.40;99.90;;;;;;7401030;19;19915;-79
2023/03/24 06:51:38;;;;;;;9.73;1.73;;;9.30;99.90;;;;;;7401063;19;19938;-80
2023/03/24 06:54:11;;;;;;;5.32;1.08;;;9.40;99.90;;;;;;7400779;19;19918;-79
2023/03/24 06:56:40;;;;;;;9.15;1.20;;;9.30;99.90;;;;;;7402355;19;19938;-80
2023/03/24 06:59:11;;;;;;;2.85;1.20;;;9.30;99.90;;;;;;7407184;19;19922;-80
2023/03/24 07:01:42;;;;;;;5.60;1.20;;;9.20;99.90;;;;;;7406752;19;19921;-80
2023/03/24 07:04:11;;;;;;;6.78;1.58;;;9.30;99.90;;;;;;7408670;19;19917;-79
2023/03/24 07:06:43;;;;;;;8.13;1.20;;;9.30;99.90;;;;;;7409199;19;19918;-80
2023/03/24 07:09:12;;;;;;;7.60;1.30;;;9.30;99.90;;;;;;7407306;19;19915;-79
2023/03/24 07:11:41;;;;;;;5.53;1.50;;;9.30;99.90;;;;;;7406501;19;19970;-79
2023/03/24 07:14:10;;;;;;;2.65;0.98;;;9.30;99.90;;;;;;7405575;19;19914;-80
2023/03/24 07:16:39;;;;;;;8.05;1.10;;;9.30;99.90;;;;;;7409023;19;20215;-79
2023/03/24 07:19:08;;;;;;;12.73;2.03;;;9.30;99.90;;;;;;7407529;19;19923;-80
2023/03/24 07:21:37;;;;;;;4.18;1.05;;;9.40;99.90;;;;;;7406956;19;19918;-79
2023/03/24 07:24:09;;;;;;;8.07;1.50;;;9.40;99.90;;;;;;7406985;19;20260;-79
2023/03/24 07:26:38;;;;;;;7.53;1.20;;;9.50;99.90;;;;;;7406974;19;19939;-80
2023/03/24 07:29:07;;;;;;;5.38;1.15;;;9.50;99.90;;;;;;7407157;19;19938;-79
2023/03/24 07:31:38;;;;;;;8.77;1.02;;;9.40;99.90;;;;;;7409656;19;19915;-79
2023/03/24 07:34:07;;;;;;;5.25;1.15;;;9.50;99.90;;;;;;7406893;19;19911;-80
2023/03/24 07:36:36;;;;;;;5.82;1.20;;;9.40;99.90;;;;;;7408058;19;19918;-80
2023/03/24 07:39:08;;;;;;;7.00;1.27;;;9.40;99.90;;;;;;7406662;19;19918;-79
2023/03/24 07:41:37;;;;;;;8.35;1.65;;;9.40;99.90;;;;;;7405994;19;20049;-79
2023/03/24 07:44:07;;;;;;;6.93;1.38;;;9.50;99.90;;;;;;7406746;19;19917;-79
2023/03/24 07:46:38;;;;;;;8.90;1.77;;;9.50;99.90;;;;;;7409430;19;19922;-80
2023/03/24 07:49:07;;;;;;;9.55;1.33;;;9.50;99.90;;;;;;7406852;19;19929;-80
2023/03/24 07:51:37;;;;;;;6.30;1.65;;;9.50;99.90;;;;;;7406674;19;19939;-79
2023/03/24 07:54:08;;;;;;;5.70;1.35;;;9.60;99.90;;;;;;7406116;19;19946;-79
2023/03/24 07:56:37;;;;;;;8.43;1.40;;;9.60;99.90;;;;;;7409656;19;19943;-79
2023/03/24 07:59:08;;;;;;;11.38;1.60;;;9.60;99.90;;;;;;7406218;19;19988;-80
2023/03/24 08:01:38;;;;;;;8.80;1.75;;;9.70;99.90;;;;;;7404772;19;19915;-80
2023/03/24 08:04:07;;;;;;;3.90;1.13;;;9.70;99.90;;;;;;7408348;19;19935;-80
2023/03/24 08:06:36;;;;;;;9.73;1.35;;;9.70;99.90;;;;;;7405078;19;19928;-80
2023/03/24 08:09:09;;;;;;;3.22;0.90;;;9.70;99.90;;;;;;7402833;19;19914;-80
2023/03/24 08:11:39;;;;;;;10.70;1.20;;;9.60;99.90;;;;;;7404917;19;20312;-80
2023/03/24 08:14:08;;;;;;;13.15;1.58;;;9.70;99.90;;;;;;7408099;19;19924;-80
2023/03/24 08:16:37;;;;;;;11.23;1.33;;;9.80;99.90;;;;;;7405239;19;19939;-79
2023/03/24 08:19:21;;;;;;;9.30;1.95;;;9.60;99.90;;;;;;7406424;19;19929;-80
2023/03/24 08:21:50;;;;;;;6.97;1.48;;;9.80;99.90;;;;;;7405518;19;19911;-80
2023/03/24 08:24:22;;;;;;;8.00;1.65;;;9.70;99.90;;;;;;7404962;19;20309;-79
2023/03/24 08:26:51;;;;;;;11.48;1.83;;;9.70;99.90;;;;;;7406445;19;20342;-79
2023/03/24 08:29:20;;;;;;;11.27;1.80;;;9.70;99.90;;;;;;7407464;19;19925;-79
2023/03/24 08:31:49;;;;;;;7.38;1.48;;;9.60;99.90;;;;;;7407141;19;19929;-79
2023/03/24 08:34:18;;;;;;;8.90;1.75;;;9.70;99.90;;;;;;7404862;19;19974;-80
2023/03/24 08:36:50;;;;;;;7.05;1.60;;;9.70;99.90;;;;;;7404405;19;20344;-79
2023/03/24 08:39:23;;;;;;;7.05;1.67;;;9.80;99.90;;;;;;7404246;19;19919;-79
2023/03/24 08:41:53;;;;;;;12.07;2.15;;;9.80;99.90;;;;;;7404756;19;19922;-79
2023/03/24 08:44:23;;;;;;;7.72;1.40;;;9.70;99.90;;;;;;7404387;19;19923;-79
2023/03/24 08:46:52;;;;;;;10.75;1.75;;;9.90;99.90;;;;;;7406145;19;20245;-79
2023/03/24 08:49:21;;;;;;;14.00;2.47;;;9.90;99.90;;;;;;7404164;19;20340;-79
2023/03/24 08:51:53;;;;;;;12.90;2.58;;;10.10;99.90;;;;;;7404340;19;19922;-80
2023/03/24 08:54:25;;;;;;;12.63;2.42;;;10.00;99.90;;;;;;7403319;19;19943;-79
2023/03/24 08:56:54;;;;;;;9.52;1.63;;;10.00;99.90;;;;;;7403758;19;19918;-79
2023/03/24 08:59:23;;;;;;;9.57;3.72;;;10.00;99.90;;;;;;7405970;19;19929;-80
2023/03/24 09:01:52;;;;;;;9.38;1.85;;;10.10;99.90;;;;;;7402024;19;20350;-80
2023/03/24 09:04:27;;;;;;;11.85;1.15;;;10.10;99.90;;;;;;7408632;19;19915;-79
2023/03/24 09:06:59;;;;;;;9.50;1.60;;;9.90;99.90;;;;;;7403392;19;19911;-79
2023/03/24 09:09:30;;;;;;;9.35;2.15;;;10.10;99.90;;;;;;7404475;19;20260;-79
2023/03/24 09:11:59;;;;;;;7.85;1.58;;;9.90;99.90;;;;;;7403692;19;19975;-79
2023/03/24 09:14:28;;;;;;;17.40;4.80;;;9.90;99.90;;;;;;7406110;19;19915;-79
2023/03/24 09:16:58;;;;;;;9.43;1.77;;;9.80;99.90;;;;;;7404001;19;19910;-79
2023/03/24 09:19:27;;;;;;;10.35;2.80;;;9.90;99.90;;;;;;7402866;19;19923;-79
2023/03/24 09:21:56;;;;;;;14.30;1.98;;;9.80;99.90;;;;;;7406756;19;19978;-79
2023/03/24 09:24:25;;;;;;;11.45;1.95;;;10.70;99.90;;;;;;7403497;19;19970;-79
2023/03/24 09:26:56;;;;;;;10.75;2.40;;;9.80;99.90;;;;;;7403075;19;19939;-80
2023/03/24 09:29:25;;;;;;;13.32;2.10;;;9.90;99.90;;;;;;7404528;19;19923;-80
2023/03/24 09:31:55;;;;;;;9.63;1.92;;;9.90;99.90;;;;;;7403372;19;19914;-80
2023/03/24 09:34:25;;;;;;;16.23;2.42;;;9.90;99.90;;;;;;7402075;19;20328;-79
2023/03/24 09:36:54;;;;;;;8.35;1.88;;;10.00;99.90;;;;;;7403037;19;19986;-79
2023/03/24 09:39:23;;;;;;;8.18;2.03;;;9.90;99.90;;;;;;7402367;19;19922;-79
2023/03/24 09:41:52;;;;;;;13.95;2.22;;;9.90;99.90;;;;;;7402563;19;19978;-79
2023/03/24 09:44:30;;;;;;;7.57;2.20;;;9.90;99.90;;;;;;7404106;19;19928;-79
2023/03/24 09:47:02;;;;;;;9.80;2.00;;;9.90;99.90;;;;;;7401468;19;19914;-79
2023/03/24 09:49:37;;;;;;;9.82;2.15;;;9.90;99.90;;;;;;7405101;19;19926;-79
2023/03/24 09:52:08;;;;;;;12.63;2.20;;;9.80;99.90;;;;;;7402042;19;19934;-79
2023/03/24 09:54:43;;;;;;;12.63;2.28;;;10.00;99.90;;;;;;7402064;19;19919;-79
2023/03/24 09:57:22;;;;;;;13.05;2.13;;;9.30;99.90;;;;;;7402426;19;19922;-79
2023/03/24 09:59:53;;;;;;;10.40;2.53;;;10.20;99.90;;;;;;7402242;19;19970;-79
2023/03/24 10:02:24;;;;;;;14.55;4.40;;;10.40;99.90;;;;;;7402770;19;19919;-79
2023/03/24 10:04:53;;;;;;;9.93;1.13;;;10.40;99.90;;;;;;7404295;19;19956;-80
2023/03/24 10:07:31;;;;;;;7.07;1.60;;;10.60;99.90;;;;;;7401298;19;20019;-79
2023/03/24 10:10:02;;;;;;;8.85;1.85;;;10.70;99.90;;;;;;7401830;19;19978;-79
2023/03/24 10:12:38;;;;;;;9.45;2.13;;;10.80;99.90;;;;;;7402484;19;19966;-79
2023/03/24 10:15:19;;;;;;;7.88;1.30;;;10.70;99.90;;;;;;7403539;19;20198;-79
2023/03/24 10:17:55;;;;;;;7.70;1.92;;;10.70;99.90;;;;;;7404308;19;19934;-80
2023/03/24 10:20:35;;;;;;;13.75;1.65;;;10.40;99.90;;;;;;7402857;19;19919;-79
2023/03/24 10:23:15;;;;;;;8.80;1.38;;;10.50;99.90;;;;;;7400096;19;19922;-79
2023/03/24 10:25:51;;;;;;;11.75;1.77;;;10.50;99.90;;;;;;7400540;19;19928;-78
2023/03/24 10:28:24;;;;;;;9.35;1.52;;;10.50;99.90;;;;;;7401255;19;20838;-80
2023/03/24 10:30:59;;;;;;;9.80;1.60;;;10.70;99.90;;;;;;7400387;19;19982;-79
2023/03/24 10:33:28;;;;;;;9.60;2.45;;;10.90;99.90;;;;;;7400542;19;19914;-79
2023/03/24 10:36:02;;;;;;;5.22;1.88;;;11.10;99.90;;;;;;7399864;19;20328;-80
2023/03/24 10:38:31;;;;;;;9.07;2.17;;;11.10;99.90;;;;;;7401266;19;20238;-80
2023/03/24 10:41:01;;;;;;;7.80;2.53;;;11.20;99.90;;;;;;7401672;19;19974;-80
2023/03/24 10:43:32;;;;;;;10.32;2.08;;;11.40;99.90;;;;;;7400615;19;19946;-80
2023/03/24 10:46:04;;;;;;;11.45;2.13;;;11.50;99.90;;;;;;7400808;19;19911;-79
2023/03/24 10:48:43;;;;;;;8.75;1.83;;;11.50;99.90;;;;;;7400740;19;19921;-79
2023/03/24 10:51:21;;;;;;;10.55;2.10;;;11.80;99.90;;;;;;7405225;19;19921;-79
2023/03/24 10:53:50;;;;;;;9.70;1.30;;;11.70;99.90;;;;;;7400348;19;19915;-79
2023/03/24 10:56:38;;;;;;;5.22;1.27;;;11.60;99.90;;;;;;7398663;19;19925;-79
2023/03/24 10:59:21;;;;;;;9.07;1.83;;;11.60;99.90;;;;;;7400976;19;19918;-79
2023/03/24 11:02:16;;;;;;;12.45;3.80;;;11.30;99.90;;;;;;7401115;19;20249;-80
2023/03/24 11:04:52;;;;;;;8.05;1.50;;;11.10;99.90;;;;;;7399750;19;19918;-80
2023/03/24 11:07:23;;;;;;;5.35;1.40;;;10.80;99.90;;;;;;7399417;19;19939;-80
2023/03/24 11:10:01;;;;;;;7.15;1.88;;;10.80;99.90;;;;;;7400225;19;19923;-78
2023/03/24 11:12:32;;;;;;;11.10;2.25;;;10.80;99.90;;;;;;7400381;19;19942;-78
2023/03/24 11:15:17;;;;;;;14.45;2.70;;;10.80;99.90;;;;;;7399498;19;20574;-78
2023/03/24 11:17:54;;;;;;;5.88;1.30;;;10.80;99.90;;;;;;7399545;19;19922;-77
2023/03/24 11:20:29;;;;;;;10.27;1.63;;;10.80;99.90;;;;;;7400020;19;19915;-77
2023/03/24 11:23:04;;;;;;;10.77;2.15;;;10.70;99.90;;;;;;7399752;19;19917;-78
2023/03/24 11:25:35;;;;;;;12.20;1.67;;;10.70;99.90;;;;;;7399399;19;20263;-76
2023/03/24 11:28:09;;;;;;;10.45;2.17;;;10.80;99.90;;;;;;7399797;19;20270;-78
2023/03/24 11:30:48;;;;;;;9.60;2.08;;;10.90;99.90;;;;;;7399689;19;20270;-78
2023/03/24 11:33:32;;;;;;;8.27;1.98;;;11.10;99.90;;;;;;7399842;19;19978;-77
2023/03/24 11:36:14;;;;;;;9.10;1.48;;;11.20;99.90;;;;;;7397400;19;19970;-78
2023/03/24 11:38:43;;;;;;;8.38;1.70;;;11.10;99.90;;;;;;7397032;19;19954;-78
2023/03/24 11:41:23;;;;;;;8.02;1.48;;;11.20;99.90;;;;;;7399575;19;19935;-78
2023/03/24 11:43:52;;;;;;;12.77;1.88;;;11.40;99.90;;;;;;7402656;19;19922;-78
2023/03/24 11:46:22;;;;;;;9.40;1.38;;;11.60;99.90;;;;;;7407538;19;19982;-78
2023/03/24 11:48:58;;;;;;;12.85;1.92;;;11.70;99.90;;;;;;7408636;19;19929;-78
2023/03/24 11:51:32;;;;;;;7.70;1.70;;;11.90;99.90;;;;;;7409512;19;19928;-78
2023/03/24 11:54:04;;;;;;;5.60;1.40;;;11.90;99.90;;;;;;7406777;19;20345;-78
2023/03/24 11:56:40;;;;;;;6.18;1.70;;;12.30;99.90;;;;;;7405504;19;20237;-77
2023/03/24 11:59:18;;;;;;;8.50;1.30;;;12.60;99.90;;;;;;7406011;19;19918;-79
2023/03/24 12:01:53;;;;;;;5.88;1.38;;;12.70;99.90;;;;;;7403275;19;19918;-77
2023/03/24 12:04:40;;;;;;;6.63;0.98;;;12.70;99.90;;;;;;7405189;19;19915;-78
2023/03/24 12:07:50;;;;;;;7.78;1.35;;;12.50;99.90;;;;;;7408648;19;19914;-78
2023/03/24 12:10:29;;;;;;;3.38;1.02;;;12.80;99.90;;;;;;7405688;19;19930;-78
2023/03/24 12:13:07;;;;;;;8.35;1.40;;;12.80;99.90;;;;;;7404237;19;20371;-78
2023/03/24 12:15:50;;;;;;;4.00;1.52;;;12.90;99.90;;;;;;7403564;19;19921;-77
2023/03/24 12:18:28;;;;;;;;;;;12.70;99.90;;;;;;7407116;19;19925;-78
2023/03/24 12:21:08;;;;;;;6.03;1.00;;;12.90;99.90;;;;;;7406307;19;19974;-77
2023/03/24 12:23:46;;;;;;;7.40;1.60;;;13.00;99.90;;;;;;7404623;19;19910;-78
2023/03/24 12:26:20;;;;;;;8.35;1.40;;;13.00;99.90;;;;;;7403831;19;19918;-78
2023/03/24 12:29:25;;;;;;;6.20;1.35;;;13.10;99.90;;;;;;7404661;19;19951;-79
2023/03/24 12:32:20;;;;;;;5.78;1.00;;;13.20;99.90;;;;;;7402979;19;19919;-79
2023/03/24 12:35:17;;;;;;;4.70;1.13;;;13.30;99.90;;;;;;7402759;19;19937;-79
2023/03/24 12:38:00;;;;;;;5.57;1.00;;;13.10;99.90;;;;;;7403033;19;19914;-79
2023/03/24 12:40:48;;;;;;;8.60;2.10;;;12.80;99.90;;;;;;7403429;19;19922;-79
2023/03/24 12:43:27;;;;;;;7.78;2.35;;;12.60;99.90;;;;;;7402763;19;19994;-79
2023/03/24 12:45:58;;;;;;;7.38;1.80;;;12.60;99.90;;;;;;7404749;19;20344;-79
2023/03/24 12:48:49;;;;;;;8.32;1.85;;;12.60;99.90;;;;;;7403023;19;19929;-80
2023/03/24 12:51:25;;;;;;;7.72;0.90;;;12.40;99.90;;;;;;7404043;19;20346;-79
2023/03/24 12:54:02;;;;;;;;;;;12.40;99.90;;;;;;7406080;19;19930;-79
2023/03/24 12:56:39;;;;;;;5.72;1.10;;;12.40;99.90;;;;;;7401951;19;19918;-80
2023/03/24 12:59:15;;;;;;;7.55;1.30;;;12.70;99.90;;;;;;7406622;19;19938;-80
2023/03/24 13:01:46;;;;;;;6.70;1.45;;;12.60;99.90;;;;;;7402986;19;19931;-79
2023/03/24 13:04:19;;;;;;;7.00;1.10;;;12.40;99.90;;;;;;7405755;19;19974;-77
2023/03/24 13:06:53;;;;;;;6.47;1.45;;;12.30;99.90;;;;;;7403288;19;19911;-77
2023/03/24 13:09:40;;;;;;;11.23;1.38;;;12.30;99.90;;;;;;7403736;19;19914;-75
2023/03/24 13:12:17;;;;;;;6.38;1.58;;;12.20;99.90;;;;;;7402604;19;19931;-75
2023/03/24 13:14:54;;;;;;;11.50;2.45;;;12.10;99.90;;;;;;7403045;19;20291;-78
2023/03/24 13:17:29;;;;;;;5.03;1.13;;;12.20;99.90;;;;;;7401257;19;19937;-80
2023/03/24 13:19:59;;;;;;;8.20;2.55;;;12.20;99.90;;;;;;7406698;19;19926;-79
2023/03/24 13:22:29;;;;;;;13.02;2.13;;;12.30;99.90;;;;;;7403043;19;19921;-79
2023/03/24 13:25:02;;;;;;;8.30;1.45;;;12.30;99.90;;;;;;7403361;19;19921;-79
2023/03/24 13:27:34;;;;;;;7.38;2.08;;;12.20;99.90;;;;;;7402734;19;19917;-79